sensor_id;sensor_type;location;lat;lon;timestamp;P1;durP1;ratioP1;P2;durP2;ratioP2
34236;SDS011;20501;45.956;13.632;2022-11-20T00:01:03;0.57;;;0.50;;
34236;SDS011;20501;45.956;13.632;2022-11-20T00:03:32;0.40;;;0.40;;
34236;SDS011;20501;45.956;13.632;2022-11-20T00:06:05;0.55;;;0.55;;
34236;SDS011;20501;45.956;13.632;2022-11-20T00:08:32;0.63;;;0.50;;
34236;SDS011;20501;45.956;13.632;2022-11-20T00:11:01;0.50;;;0.43;;
34236;SDS011;20501;45.956;13.632;2022-11-20T00:13:28;0.60;;;0.52;;
34236;SDS011;20501;45.956;13.632;2022-11-20T00:15:57;0.40;;;0.40;;
34236;SDS011;20501;45.956;13.632;2022-11-20T00:18:24;1.08;;;0.80;;
34236;SDS011;20501;45.956;13.632;2022-11-20T00:20:49;0.73;;;0.50;;
34236;SDS011;20501;45.956;13.632;2022-11-20T00:23:15;1.40;;;0.55;;
34236;SDS011;20501;45.956;13.632;2022-11-20T00:25:40;0.60;;;0.32;;
34236;SDS011;20501;45.956;13.632;2022-11-20T00:28:06;0.60;;;0.55;;
34236;SDS011;20501;45.956;13.632;2022-11-20T00:30:31;0.95;;;0.57;;
34236;SDS011;20501;45.956;13.632;2022-11-20T00:32:56;0.55;;;0.50;;
34236;SDS011;20501;45.956;13.632;2022-11-20T00:35:23;1.30;;;0.65;;
34236;SDS011;20501;45.956;13.632;2022-11-20T00:37:48;0.35;;;0.35;;
34236;SDS011;20501;45.956;13.632;2022-11-20T00:40:14;0.50;;;0.50;;
34236;SDS011;20501;45.956;13.632;2022-11-20T00:42:39;0.50;;;0.40;;
34236;SDS011;20501;45.956;13.632;2022-11-20T00:45:05;1.00;;;0.50;;
34236;SDS011;20501;45.956;13.632;2022-11-20T00:47:30;0.50;;;0.40;;
34236;SDS011;20501;45.956;13.632;2022-11-20T00:49:56;1.10;;;0.50;;
34236;SDS011;20501;45.956;13.632;2022-11-20T00:52:21;0.63;;;0.43;;
34236;SDS011;20501;45.956;13.632;2022-11-20T00:54:46;0.75;;;0.40;;
34236;SDS011;20501;45.956;13.632;2022-11-20T00:57:12;0.20;;;0.20;;
34236;SDS011;20501;45.956;13.632;2022-11-20T00:59:37;0.82;;;0.50;;
34236;SDS011;20501;45.956;13.632;2022-11-20T01:02:03;0.40;;;0.40;;
34236;SDS011;20501;45.956;13.632;2022-11-20T01:04:28;0.40;;;0.35;;
34236;SDS011;20501;45.956;13.632;2022-11-20T01:06:53;0.40;;;0.40;;
34236;SDS011;20501;45.956;13.632;2022-11-20T01:09:19;0.82;;;0.40;;
34236;SDS011;20501;45.956;13.632;2022-11-20T01:11:44;0.43;;;0.30;;
34236;SDS011;20501;45.956;13.632;2022-11-20T01:14:11;0.60;;;0.40;;
34236;SDS011;20501;45.956;13.632;2022-11-20T01:16:43;0.50;;;0.50;;
34236;SDS011;20501;45.956;13.632;2022-11-20T01:19:11;1.88;;;0.35;;
34236;SDS011;20501;45.956;13.632;2022-11-20T01:21:39;0.70;;;0.40;;
34236;SDS011;20501;45.956;13.632;2022-11-20T01:24:06;1.00;;;0.60;;
34236;SDS011;20501;45.956;13.632;2022-11-20T01:26:34;0.40;;;0.32;;
34236;SDS011;20501;45.956;13.632;2022-11-20T01:29:02;2.80;;;0.45;;
34236;SDS011;20501;45.956;13.632;2022-11-20T01:33:56;0.68;;;0.50;;
34236;SDS011;20501;45.956;13.632;2022-11-20T01:36:24;0.32;;;0.32;;
34236;SDS011;20501;45.956;13.632;2022-11-20T01:38:53;0.90;;;0.60;;
34236;SDS011;20501;45.956;13.632;2022-11-20T01:41:21;0.50;;;0.50;;
34236;SDS011;20501;45.956;13.632;2022-11-20T01:44:05;0.52;;;0.32;;
34236;SDS011;20501;45.956;13.632;2022-11-20T01:46:35;0.55;;;0.47;;
34236;SDS011;20501;45.956;13.632;2022-11-20T01:49:22;1.00;;;0.70;;
34236;SDS011;20501;45.956;13.632;2022-11-20T01:52:01;0.57;;;0.50;;
34236;SDS011;20501;45.956;13.632;2022-11-20T01:54:37;0.43;;;0.40;;
34236;SDS011;20501;45.956;13.632;2022-11-20T01:57:07;0.50;;;0.40;;
34236;SDS011;20501;45.956;13.632;2022-11-20T01:59:38;0.70;;;0.40;;
34236;SDS011;20501;45.956;13.632;2022-11-20T02:02:06;0.60;;;0.40;;
34236;SDS011;20501;45.956;13.632;2022-11-20T02:04:32;0.60;;;0.47;;
34236;SDS011;20501;45.956;13.632;2022-11-20T02:07:00;0.68;;;0.55;;
34236;SDS011;20501;45.956;13.632;2022-11-20T02:09:27;0.40;;;0.40;;
34236;SDS011;20501;45.956;13.632;2022-11-20T02:11:53;0.68;;;0.40;;
34236;SDS011;20501;45.956;13.632;2022-11-20T02:14:19;2.40;;;0.32;;
34236;SDS011;20501;45.956;13.632;2022-11-20T02:16:46;0.45;;;0.38;;
34236;SDS011;20501;45.956;13.632;2022-11-20T02:21:49;0.40;;;0.30;;
34236;SDS011;20501;45.956;13.632;2022-11-20T02:24:37;0.75;;;0.47;;
34236;SDS011;20501;45.956;13.632;2022-11-20T02:30:04;0.40;;;0.40;;
34236;SDS011;20501;45.956;13.632;2022-11-20T02:34:54;0.85;;;0.50;;
34236;SDS011;20501;45.956;13.632;2022-11-20T02:37:20;0.20;;;0.20;;
34236;SDS011;20501;45.956;13.632;2022-11-20T02:39:47;0.75;;;0.68;;
34236;SDS011;20501;45.956;13.632;2022-11-20T02:42:15;0.60;;;0.43;;
34236;SDS011;20501;45.956;13.632;2022-11-20T02:44:40;0.35;;;0.35;;
34236;SDS011;20501;45.956;13.632;2022-11-20T02:47:06;0.32;;;0.30;;
34236;SDS011;20501;45.956;13.632;2022-11-20T02:49:31;0.40;;;0.30;;
34236;SDS011;20501;45.956;13.632;2022-11-20T02:51:57;0.28;;;0.28;;
34236;SDS011;20501;45.956;13.632;2022-11-20T02:54:22;0.40;;;0.40;;
34236;SDS011;20501;45.956;13.632;2022-11-20T02:56:48;0.40;;;0.33;;
34236;SDS011;20501;45.956;13.632;2022-11-20T02:59:14;2.30;;;0.70;;
34236;SDS011;20501;45.956;13.632;2022-11-20T03:01:39;2.40;;;1.20;;
34236;SDS011;20501;45.956;13.632;2022-11-20T03:04:05;1.02;;;0.80;;
34236;SDS011;20501;45.956;13.632;2022-11-20T03:06:30;0.65;;;0.47;;
34236;SDS011;20501;45.956;13.632;2022-11-20T03:08:56;0.83;;;0.60;;
34236;SDS011;20501;45.956;13.632;2022-11-20T03:11:22;1.00;;;0.45;;
34236;SDS011;20501;45.956;13.632;2022-11-20T03:13:47;0.55;;;0.50;;
34236;SDS011;20501;45.956;13.632;2022-11-20T03:16:14;0.70;;;0.55;;
34236;SDS011;20501;45.956;13.632;2022-11-20T03:18:41;0.82;;;0.40;;
34236;SDS011;20501;45.956;13.632;2022-11-20T03:21:07;0.43;;;0.30;;
34236;SDS011;20501;45.956;13.632;2022-11-20T03:23:33;1.80;;;0.57;;
34236;SDS011;20501;45.956;13.632;2022-11-20T03:26:09;0.60;;;0.50;;
34236;SDS011;20501;45.956;13.632;2022-11-20T03:28:42;0.93;;;0.50;;
34236;SDS011;20501;45.956;13.632;2022-11-20T03:31:12;0.70;;;0.40;;
34236;SDS011;20501;45.956;13.632;2022-11-20T03:33:39;0.43;;;0.40;;
34236;SDS011;20501;45.956;13.632;2022-11-20T03:36:07;1.20;;;0.70;;
34236;SDS011;20501;45.956;13.632;2022-11-20T03:38:34;0.63;;;0.45;;
34236;SDS011;20501;45.956;13.632;2022-11-20T03:41:01;0.32;;;0.30;;
34236;SDS011;20501;45.956;13.632;2022-11-20T03:43:29;1.00;;;0.50;;
34236;SDS011;20501;45.956;13.632;2022-11-20T03:45:55;0.60;;;0.60;;
34236;SDS011;20501;45.956;13.632;2022-11-20T03:48:20;0.60;;;0.43;;
34236;SDS011;20501;45.956;13.632;2022-11-20T03:50:46;0.95;;;0.40;;
34236;SDS011;20501;45.956;13.632;2022-11-20T03:53:15;0.60;;;0.50;;
34236;SDS011;20501;45.956;13.632;2022-11-20T03:55:41;0.40;;;0.40;;
34236;SDS011;20501;45.956;13.632;2022-11-20T03:58:07;0.40;;;0.40;;
34236;SDS011;20501;45.956;13.632;2022-11-20T04:00:32;0.55;;;0.43;;
34236;SDS011;20501;45.956;13.632;2022-11-20T04:02:58;0.63;;;0.50;;
34236;SDS011;20501;45.956;13.632;2022-11-20T04:05:24;0.40;;;0.40;;
34236;SDS011;20501;45.956;13.632;2022-11-20T04:07:50;0.77;;;0.50;;
34236;SDS011;20501;45.956;13.632;2022-11-20T04:10:15;0.45;;;0.40;;
34236;SDS011;20501;45.956;13.632;2022-11-20T04:12:41;0.68;;;0.40;;
34236;SDS011;20501;45.956;13.632;2022-11-20T04:15:06;0.50;;;0.50;;
34236;SDS011;20501;45.956;13.632;2022-11-20T04:17:32;0.90;;;0.75;;
34236;SDS011;20501;45.956;13.632;2022-11-20T04:19:57;2.08;;;0.50;;
34236;SDS011;20501;45.956;13.632;2022-11-20T04:22:23;0.40;;;0.40;;
34236;SDS011;20501;45.956;13.632;2022-11-20T04:24:48;1.05;;;0.75;;
34236;SDS011;20501;45.956;13.632;2022-11-20T04:27:13;0.77;;;0.60;;
34236;SDS011;20501;45.956;13.632;2022-11-20T04:29:39;0.68;;;0.50;;
34236;SDS011;20501;45.956;13.632;2022-11-20T04:32:05;2.35;;;0.80;;
34236;SDS011;20501;45.956;13.632;2022-11-20T04:34:30;0.77;;;0.68;;
34236;SDS011;20501;45.956;13.632;2022-11-20T04:36:56;0.45;;;0.40;;
34236;SDS011;20501;45.956;13.632;2022-11-20T04:39:21;0.70;;;0.60;;
34236;SDS011;20501;45.956;13.632;2022-11-20T04:41:47;1.17;;;0.77;;
34236;SDS011;20501;45.956;13.632;2022-11-20T04:44:12;1.85;;;0.60;;
34236;SDS011;20501;45.956;13.632;2022-11-20T04:46:39;1.65;;;0.60;;
34236;SDS011;20501;45.956;13.632;2022-11-20T04:49:06;0.85;;;0.60;;
34236;SDS011;20501;45.956;13.632;2022-11-20T04:51:32;0.52;;;0.45;;
34236;SDS011;20501;45.956;13.632;2022-11-20T04:53:58;2.10;;;0.70;;
34236;SDS011;20501;45.956;13.632;2022-11-20T04:56:24;0.70;;;0.40;;
34236;SDS011;20501;45.956;13.632;2022-11-20T04:58:50;0.52;;;0.45;;
34236;SDS011;20501;45.956;13.632;2022-11-20T05:01:20;2.33;;;0.60;;
34236;SDS011;20501;45.956;13.632;2022-11-20T05:03:46;0.60;;;0.40;;
34236;SDS011;20501;45.956;13.632;2022-11-20T05:06:13;0.75;;;0.50;;
34236;SDS011;20501;45.956;13.632;2022-11-20T05:08:40;0.65;;;0.65;;
34236;SDS011;20501;45.956;13.632;2022-11-20T05:11:07;0.80;;;0.38;;
34236;SDS011;20501;45.956;13.632;2022-11-20T05:13:36;0.85;;;0.40;;
34236;SDS011;20501;45.956;13.632;2022-11-20T05:16:13;0.63;;;0.52;;
34236;SDS011;20501;45.956;13.632;2022-11-20T05:18:40;0.40;;;0.40;;
34236;SDS011;20501;45.956;13.632;2022-11-20T05:21:06;0.60;;;0.40;;
34236;SDS011;20501;45.956;13.632;2022-11-20T05:23:32;0.22;;;0.22;;
34236;SDS011;20501;45.956;13.632;2022-11-20T05:25:58;0.40;;;0.40;;
34236;SDS011;20501;45.956;13.632;2022-11-20T05:28:24;0.50;;;0.40;;
34236;SDS011;20501;45.956;13.632;2022-11-20T05:30:50;0.70;;;0.50;;
34236;SDS011;20501;45.956;13.632;2022-11-20T05:33:15;0.32;;;0.32;;
34236;SDS011;20501;45.956;13.632;2022-11-20T05:35:41;1.90;;;0.63;;
34236;SDS011;20501;45.956;13.632;2022-11-20T05:38:07;0.45;;;0.45;;
34236;SDS011;20501;45.956;13.632;2022-11-20T05:40:33;0.88;;;0.75;;
34236;SDS011;20501;45.956;13.632;2022-11-20T05:42:59;0.45;;;0.40;;
34236;SDS011;20501;45.956;13.632;2022-11-20T05:45:25;0.90;;;0.73;;
34236;SDS011;20501;45.956;13.632;2022-11-20T05:47:50;0.68;;;0.55;;
34236;SDS011;20501;45.956;13.632;2022-11-20T05:50:15;1.52;;;0.98;;
34236;SDS011;20501;45.956;13.632;2022-11-20T05:52:41;1.30;;;0.90;;
34236;SDS011;20501;45.956;13.632;2022-11-20T05:55:07;0.80;;;0.70;;
34236;SDS011;20501;45.956;13.632;2022-11-20T05:57:33;1.17;;;0.90;;
34236;SDS011;20501;45.956;13.632;2022-11-20T05:59:58;0.70;;;0.70;;
34236;SDS011;20501;45.956;13.632;2022-11-20T06:02:24;8.95;;;4.75;;
34236;SDS011;20501;45.956;13.632;2022-11-20T06:04:49;39.47;;;19.80;;
34236;SDS011;20501;45.956;13.632;2022-11-20T06:07:15;29.20;;;15.05;;
34236;SDS011;20501;45.956;13.632;2022-11-20T06:09:40;9.25;;;5.25;;
34236;SDS011;20501;45.956;13.632;2022-11-20T06:12:06;6.85;;;4.10;;
34236;SDS011;20501;45.956;13.632;2022-11-20T06:14:31;8.15;;;4.38;;
34236;SDS011;20501;45.956;13.632;2022-11-20T06:16:57;10.52;;;6.03;;
34236;SDS011;20501;45.956;13.632;2022-11-20T06:19:23;7.00;;;4.32;;
34236;SDS011;20501;45.956;13.632;2022-11-20T06:21:48;8.98;;;4.80;;
34236;SDS011;20501;45.956;13.632;2022-11-20T06:24:16;5.75;;;3.70;;
34236;SDS011;20501;45.956;13.632;2022-11-20T06:26:42;7.53;;;3.95;;
34236;SDS011;20501;45.956;13.632;2022-11-20T06:29:09;5.40;;;3.23;;
34236;SDS011;20501;45.956;13.632;2022-11-20T06:31:34;5.53;;;3.10;;
34236;SDS011;20501;45.956;13.632;2022-11-20T06:34:02;3.95;;;3.10;;
34236;SDS011;20501;45.956;13.632;2022-11-20T06:36:29;5.78;;;3.40;;
34236;SDS011;20501;45.956;13.632;2022-11-20T06:38:54;2.03;;;1.20;;
34236;SDS011;20501;45.956;13.632;2022-11-20T06:41:20;1.60;;;1.25;;
34236;SDS011;20501;45.956;13.632;2022-11-20T06:43:46;4.43;;;2.60;;
34236;SDS011;20501;45.956;13.632;2022-11-20T06:46:12;3.80;;;2.65;;
34236;SDS011;20501;45.956;13.632;2022-11-20T06:48:39;4.80;;;3.05;;
34236;SDS011;20501;45.956;13.632;2022-11-20T06:51:05;1.88;;;1.15;;
34236;SDS011;20501;45.956;13.632;2022-11-20T06:55:57;2.90;;;1.95;;
34236;SDS011;20501;45.956;13.632;2022-11-20T06:58:23;3.00;;;1.85;;
34236;SDS011;20501;45.956;13.632;2022-11-20T07:00:51;1.83;;;1.70;;
34236;SDS011;20501;45.956;13.632;2022-11-20T07:03:16;2.10;;;1.73;;
34236;SDS011;20501;45.956;13.632;2022-11-20T07:05:42;4.05;;;1.83;;
34236;SDS011;20501;45.956;13.632;2022-11-20T07:08:07;2.83;;;1.80;;
34236;SDS011;20501;45.956;13.632;2022-11-20T07:10:33;2.00;;;1.70;;
34236;SDS011;20501;45.956;13.632;2022-11-20T07:12:58;1.73;;;1.60;;
34236;SDS011;20501;45.956;13.632;2022-11-20T07:15:24;2.78;;;2.10;;
34236;SDS011;20501;45.956;13.632;2022-11-20T07:17:50;1.50;;;1.33;;
34236;SDS011;20501;45.956;13.632;2022-11-20T07:20:16;1.88;;;1.63;;
34236;SDS011;20501;45.956;13.632;2022-11-20T07:22:42;2.58;;;1.92;;
34236;SDS011;20501;45.956;13.632;2022-11-20T07:25:08;2.92;;;2.03;;
34236;SDS011;20501;45.956;13.632;2022-11-20T07:27:34;2.75;;;1.80;;
34236;SDS011;20501;45.956;13.632;2022-11-20T07:29:59;16.73;;;9.40;;
34236;SDS011;20501;45.956;13.632;2022-11-20T07:32:25;5.20;;;3.45;;
34236;SDS011;20501;45.956;13.632;2022-11-20T07:34:51;3.50;;;2.67;;
34236;SDS011;20501;45.956;13.632;2022-11-20T07:37:16;6.00;;;3.05;;
34236;SDS011;20501;45.956;13.632;2022-11-20T07:39:42;4.07;;;2.85;;
34236;SDS011;20501;45.956;13.632;2022-11-20T07:42:07;6.68;;;3.30;;
34236;SDS011;20501;45.956;13.632;2022-11-20T07:44:33;9.05;;;5.53;;
34236;SDS011;20501;45.956;13.632;2022-11-20T07:46:59;5.45;;;3.00;;
34236;SDS011;20501;45.956;13.632;2022-11-20T07:49:24;10.98;;;5.80;;
34236;SDS011;20501;45.956;13.632;2022-11-20T07:51:50;11.20;;;6.70;;
34236;SDS011;20501;45.956;13.632;2022-11-20T07:54:18;6.72;;;4.60;;
34236;SDS011;20501;45.956;13.632;2022-11-20T07:56:43;5.30;;;3.67;;
34236;SDS011;20501;45.956;13.632;2022-11-20T07:59:09;6.50;;;4.57;;
34236;SDS011;20501;45.956;13.632;2022-11-20T08:01:36;10.13;;;5.80;;
34236;SDS011;20501;45.956;13.632;2022-11-20T08:04:02;9.82;;;6.53;;
34236;SDS011;20501;45.956;13.632;2022-11-20T08:06:28;8.23;;;5.53;;
34236;SDS011;20501;45.956;13.632;2022-11-20T08:08:53;9.88;;;5.85;;
34236;SDS011;20501;45.956;13.632;2022-11-20T08:11:18;9.45;;;5.68;;
34236;SDS011;20501;45.956;13.632;2022-11-20T08:14:02;9.77;;;5.40;;
34236;SDS011;20501;45.956;13.632;2022-11-20T08:16:40;7.80;;;5.00;;
34236;SDS011;20501;45.956;13.632;2022-11-20T08:19:07;8.25;;;4.72;;
34236;SDS011;20501;45.956;13.632;2022-11-20T08:21:33;6.88;;;4.88;;
34236;SDS011;20501;45.956;13.632;2022-11-20T08:23:58;8.63;;;4.93;;
34236;SDS011;20501;45.956;13.632;2022-11-20T08:26:24;8.60;;;4.45;;
34236;SDS011;20501;45.956;13.632;2022-11-20T08:28:54;9.33;;;4.97;;
34236;SDS011;20501;45.956;13.632;2022-11-20T08:31:20;10.35;;;4.90;;
34236;SDS011;20501;45.956;13.632;2022-11-20T08:33:46;8.70;;;4.65;;
34236;SDS011;20501;45.956;13.632;2022-11-20T08:36:12;6.88;;;4.10;;
34236;SDS011;20501;45.956;13.632;2022-11-20T08:38:37;8.32;;;5.30;;
34236;SDS011;20501;45.956;13.632;2022-11-20T08:41:04;7.97;;;4.82;;
34236;SDS011;20501;45.956;13.632;2022-11-20T08:43:49;8.05;;;5.28;;
34236;SDS011;20501;45.956;13.632;2022-11-20T08:46:15;6.25;;;3.63;;
34236;SDS011;20501;45.956;13.632;2022-11-20T08:48:41;6.55;;;3.75;;
34236;SDS011;20501;45.956;13.632;2022-11-20T08:51:07;5.50;;;3.33;;
34236;SDS011;20501;45.956;13.632;2022-11-20T08:53:33;5.20;;;2.67;;
34236;SDS011;20501;45.956;13.632;2022-11-20T08:55:58;6.15;;;3.97;;
34236;SDS011;20501;45.956;13.632;2022-11-20T08:58:25;5.60;;;3.85;;
34236;SDS011;20501;45.956;13.632;2022-11-20T09:00:51;5.95;;;3.90;;
34236;SDS011;20501;45.956;13.632;2022-11-20T09:03:17;7.18;;;4.03;;
34236;SDS011;20501;45.956;13.632;2022-11-20T09:05:42;26.30;;;11.23;;
34236;SDS011;20501;45.956;13.632;2022-11-20T09:08:08;5.63;;;3.45;;
34236;SDS011;20501;45.956;13.632;2022-11-20T09:10:33;6.97;;;3.72;;
34236;SDS011;20501;45.956;13.632;2022-11-20T09:13:00;7.78;;;4.32;;
34236;SDS011;20501;45.956;13.632;2022-11-20T09:15:26;7.03;;;3.83;;
34236;SDS011;20501;45.956;13.632;2022-11-20T09:17:53;6.55;;;3.92;;
34236;SDS011;20501;45.956;13.632;2022-11-20T09:20:19;7.43;;;3.97;;
34236;SDS011;20501;45.956;13.632;2022-11-20T09:22:45;6.88;;;3.83;;
34236;SDS011;20501;45.956;13.632;2022-11-20T09:25:10;4.28;;;2.28;;
34236;SDS011;20501;45.956;13.632;2022-11-20T09:27:36;4.57;;;1.38;;
34236;SDS011;20501;45.956;13.632;2022-11-20T09:30:01;8.70;;;1.90;;
34236;SDS011;20501;45.956;13.632;2022-11-20T09:32:27;2.03;;;0.90;;
34236;SDS011;20501;45.956;13.632;2022-11-20T09:34:53;2.50;;;1.50;;
34236;SDS011;20501;45.956;13.632;2022-11-20T09:37:18;1.60;;;0.93;;
34236;SDS011;20501;45.956;13.632;2022-11-20T09:39:44;3.08;;;1.90;;
34236;SDS011;20501;45.956;13.632;2022-11-20T09:45:20;1.20;;;1.00;;
34236;SDS011;20501;45.956;13.632;2022-11-20T09:48:05;1.38;;;1.10;;
34236;SDS011;20501;45.956;13.632;2022-11-20T09:55:50;1.55;;;1.00;;
34236;SDS011;20501;45.956;13.632;2022-11-20T10:01:20;1.27;;;0.85;;
34236;SDS011;20501;45.956;13.632;2022-11-20T10:06:32;1.98;;;0.75;;
34236;SDS011;20501;45.956;13.632;2022-11-20T10:14:34;1.20;;;0.82;;
34236;SDS011;20501;45.956;13.632;2022-11-20T10:17:26;0.82;;;0.63;;
34236;SDS011;20501;45.956;13.632;2022-11-20T10:25:48;0.80;;;0.68;;
34236;SDS011;20501;45.956;13.632;2022-11-20T10:30:49;0.70;;;0.68;;
34236;SDS011;20501;45.956;13.632;2022-11-20T10:33:34;0.82;;;0.43;;
34236;SDS011;20501;45.956;13.632;2022-11-20T10:38:37;1.08;;;0.70;;
34236;SDS011;20501;45.956;13.632;2022-11-20T10:41:05;0.93;;;0.70;;
34236;SDS011;20501;45.956;13.632;2022-11-20T10:43:50;0.70;;;0.68;;
34236;SDS011;20501;45.956;13.632;2022-11-20T10:46:24;1.48;;;0.60;;
34236;SDS011;20501;45.956;13.632;2022-11-20T10:48:50;2.67;;;0.70;;
34236;SDS011;20501;45.956;13.632;2022-11-20T10:57:10;2.42;;;1.70;;
34236;SDS011;20501;45.956;13.632;2022-11-20T11:02:35;5.07;;;1.65;;
34236;SDS011;20501;45.956;13.632;2022-11-20T11:08:14;2.03;;;1.38;;
34236;SDS011;20501;45.956;13.632;2022-11-20T11:10:51;1.92;;;0.88;;
34236;SDS011;20501;45.956;13.632;2022-11-20T11:13:22;1.13;;;0.88;;
34236;SDS011;20501;45.956;13.632;2022-11-20T11:15:50;0.88;;;0.60;;
34236;SDS011;20501;45.956;13.632;2022-11-20T11:18:32;2.80;;;0.98;;
34236;SDS011;20501;45.956;13.632;2022-11-20T11:21:02;1.02;;;0.90;;
34236;SDS011;20501;45.956;13.632;2022-11-20T11:23:36;1.05;;;0.90;;
34236;SDS011;20501;45.956;13.632;2022-11-20T11:26:05;2.83;;;1.00;;
34236;SDS011;20501;45.956;13.632;2022-11-20T11:28:32;1.05;;;0.82;;
34236;SDS011;20501;45.956;13.632;2022-11-20T11:30:58;1.85;;;1.38;;
34236;SDS011;20501;45.956;13.632;2022-11-20T11:33:25;1.25;;;0.70;;
34236;SDS011;20501;45.956;13.632;2022-11-20T11:35:55;0.90;;;0.90;;
34236;SDS011;20501;45.956;13.632;2022-11-20T11:40:54;1.83;;;1.38;;
34236;SDS011;20501;45.956;13.632;2022-11-20T11:43:23;1.40;;;0.90;;
34236;SDS011;20501;45.956;13.632;2022-11-20T11:49:08;3.78;;;1.70;;
34236;SDS011;20501;45.956;13.632;2022-11-20T11:57:47;1.38;;;0.80;;
34236;SDS011;20501;45.956;13.632;2022-11-20T12:00:12;1.95;;;0.90;;
34236;SDS011;20501;45.956;13.632;2022-11-20T12:05:21;10.40;;;2.53;;
34236;SDS011;20501;45.956;13.632;2022-11-20T12:12:48;0.90;;;0.70;;
34236;SDS011;20501;45.956;13.632;2022-11-20T12:15:28;17.60;;;3.40;;
34236;SDS011;20501;45.956;13.632;2022-11-20T12:17:55;16.33;;;2.78;;
34236;SDS011;20501;45.956;13.632;2022-11-20T12:20:22;19.95;;;3.80;;
34236;SDS011;20501;45.956;13.632;2022-11-20T12:23:00;8.75;;;2.33;;
34236;SDS011;20501;45.956;13.632;2022-11-20T12:25:34;13.07;;;2.65;;
34236;SDS011;20501;45.956;13.632;2022-11-20T12:44:12;3.30;;;2.42;;
34236;SDS011;20501;45.956;13.632;2022-11-20T13:01:10;1.95;;;0.90;;
34236;SDS011;20501;45.956;13.632;2022-11-20T13:04:06;4.47;;;2.22;;
34236;SDS011;20501;45.956;13.632;2022-11-20T13:06:33;3.92;;;1.65;;
34236;SDS011;20501;45.956;13.632;2022-11-20T13:08:58;3.60;;;0.77;;
34236;SDS011;20501;45.956;13.632;2022-11-20T13:16:54;1.00;;;0.75;;
34236;SDS011;20501;45.956;13.632;2022-11-20T13:19:25;1.20;;;0.90;;
34236;SDS011;20501;45.956;13.632;2022-11-20T13:21:52;2.88;;;0.63;;
34236;SDS011;20501;45.956;13.632;2022-11-20T13:27:02;0.88;;;0.75;;
34236;SDS011;20501;45.956;13.632;2022-11-20T13:29:29;1.05;;;0.70;;
34236;SDS011;20501;45.956;13.632;2022-11-20T13:37:34;1.10;;;0.80;;
34236;SDS011;20501;45.956;13.632;2022-11-20T13:40:05;0.88;;;0.60;;
34236;SDS011;20501;45.956;13.632;2022-11-20T13:42:35;0.88;;;0.60;;
34236;SDS011;20501;45.956;13.632;2022-11-20T13:45:08;1.42;;;0.77;;
34236;SDS011;20501;45.956;13.632;2022-11-20T13:47:55;0.80;;;0.60;;
34236;SDS011;20501;45.956;13.632;2022-11-20T13:50:28;0.60;;;0.60;;
34236;SDS011;20501;45.956;13.632;2022-11-20T13:56:03;1.58;;;1.00;;
34236;SDS011;20501;45.956;13.632;2022-11-20T14:01:28;2.17;;;0.90;;
34236;SDS011;20501;45.956;13.632;2022-11-20T14:03:56;0.88;;;0.60;;
34236;SDS011;20501;45.956;13.632;2022-11-20T14:06:29;0.63;;;0.63;;
34236;SDS011;20501;45.956;13.632;2022-11-20T14:08:56;1.05;;;0.80;;
34236;SDS011;20501;45.956;13.632;2022-11-20T14:16:26;2.72;;;2.10;;
34236;SDS011;20501;45.956;13.632;2022-11-20T14:18:53;1.90;;;1.23;;
34236;SDS011;20501;45.956;13.632;2022-11-20T14:21:27;2.33;;;1.80;;
34236;SDS011;20501;45.956;13.632;2022-11-20T14:24:04;1.20;;;1.00;;
34236;SDS011;20501;45.956;13.632;2022-11-20T14:26:30;1.48;;;1.08;;
34236;SDS011;20501;45.956;13.632;2022-11-20T14:28:56;1.30;;;1.10;;
34236;SDS011;20501;45.956;13.632;2022-11-20T14:31:25;2.40;;;1.15;;
34236;SDS011;20501;45.956;13.632;2022-11-20T14:33:53;1.13;;;1.02;;
34236;SDS011;20501;45.956;13.632;2022-11-20T14:36:23;1.90;;;1.30;;
34236;SDS011;20501;45.956;13.632;2022-11-20T14:38:51;1.40;;;1.10;;
34236;SDS011;20501;45.956;13.632;2022-11-20T14:41:22;1.65;;;1.27;;
34236;SDS011;20501;45.956;13.632;2022-11-20T14:43:58;1.45;;;1.00;;
34236;SDS011;20501;45.956;13.632;2022-11-20T14:46:25;3.72;;;1.35;;
34236;SDS011;20501;45.956;13.632;2022-11-20T14:53:56;3.38;;;1.35;;
34236;SDS011;20501;45.956;13.632;2022-11-20T14:56:24;2.97;;;2.15;;
34236;SDS011;20501;45.956;13.632;2022-11-20T14:58:58;3.92;;;2.92;;
34236;SDS011;20501;45.956;13.632;2022-11-20T15:01:28;3.10;;;2.60;;
34236;SDS011;20501;45.956;13.632;2022-11-20T15:06:51;3.42;;;2.10;;
34236;SDS011;20501;45.956;13.632;2022-11-20T15:09:18;3.10;;;2.05;;
34236;SDS011;20501;45.956;13.632;2022-11-20T15:14:20;2.35;;;1.65;;
34236;SDS011;20501;45.956;13.632;2022-11-20T15:16:45;3.78;;;2.10;;
34236;SDS011;20501;45.956;13.632;2022-11-20T15:19:18;2.95;;;1.90;;
34236;SDS011;20501;45.956;13.632;2022-11-20T15:21:45;2.00;;;1.60;;
34236;SDS011;20501;45.956;13.632;2022-11-20T15:24:11;2.25;;;1.73;;
34236;SDS011;20501;45.956;13.632;2022-11-20T15:26:36;3.28;;;1.90;;
34236;SDS011;20501;45.956;13.632;2022-11-20T15:29:05;2.72;;;1.92;;
34236;SDS011;20501;45.956;13.632;2022-11-20T15:31:37;3.03;;;1.92;;
34236;SDS011;20501;45.956;13.632;2022-11-20T15:34:09;3.97;;;2.45;;
34236;SDS011;20501;45.956;13.632;2022-11-20T15:36:37;3.38;;;2.08;;
34236;SDS011;20501;45.956;13.632;2022-11-20T15:39:03;3.83;;;2.50;;
34236;SDS011;20501;45.956;13.632;2022-11-20T15:41:29;4.35;;;2.55;;
34236;SDS011;20501;45.956;13.632;2022-11-20T15:43:54;3.45;;;2.40;;
34236;SDS011;20501;45.956;13.632;2022-11-20T15:46:23;4.72;;;2.75;;
34236;SDS011;20501;45.956;13.632;2022-11-20T15:48:56;4.03;;;2.70;;
34236;SDS011;20501;45.956;13.632;2022-11-20T15:51:26;3.88;;;2.53;;
34236;SDS011;20501;45.956;13.632;2022-11-20T15:53:54;6.28;;;3.28;;
34236;SDS011;20501;45.956;13.632;2022-11-20T15:56:20;7.35;;;3.42;;
34236;SDS011;20501;45.956;13.632;2022-11-20T15:58:46;4.30;;;2.60;;
34236;SDS011;20501;45.956;13.632;2022-11-20T16:01:12;4.50;;;2.80;;
34236;SDS011;20501;45.956;13.632;2022-11-20T16:03:40;4.40;;;2.80;;
34236;SDS011;20501;45.956;13.632;2022-11-20T16:06:06;7.40;;;3.80;;
34236;SDS011;20501;45.956;13.632;2022-11-20T16:08:31;5.07;;;3.28;;
34236;SDS011;20501;45.956;13.632;2022-11-20T16:10:57;7.72;;;3.47;;
34236;SDS011;20501;45.956;13.632;2022-11-20T16:13:22;15.52;;;7.18;;
34236;SDS011;20501;45.956;13.632;2022-11-20T16:16:07;7.65;;;4.95;;
34236;SDS011;20501;45.956;13.632;2022-11-20T16:18:47;22.25;;;13.00;;
34236;SDS011;20501;45.956;13.632;2022-11-20T16:21:13;14.10;;;8.02;;
34236;SDS011;20501;45.956;13.632;2022-11-20T16:23:39;11.63;;;6.63;;
34236;SDS011;20501;45.956;13.632;2022-11-20T16:26:09;35.53;;;19.50;;
34236;SDS011;20501;45.956;13.632;2022-11-20T16:28:35;13.93;;;9.35;;
34236;SDS011;20501;45.956;13.632;2022-11-20T16:31:11;17.48;;;10.30;;
34236;SDS011;20501;45.956;13.632;2022-11-20T16:33:41;18.05;;;10.85;;
34236;SDS011;20501;45.956;13.632;2022-11-20T16:36:11;23.95;;;14.50;;
34236;SDS011;20501;45.956;13.632;2022-11-20T16:38:38;19.27;;;10.82;;
34236;SDS011;20501;45.956;13.632;2022-11-20T16:41:04;16.98;;;10.35;;
34236;SDS011;20501;45.956;13.632;2022-11-20T16:43:30;19.02;;;10.90;;
34236;SDS011;20501;45.956;13.632;2022-11-20T16:45:56;17.30;;;10.43;;
34236;SDS011;20501;45.956;13.632;2022-11-20T16:48:21;16.83;;;10.25;;
34236;SDS011;20501;45.956;13.632;2022-11-20T16:50:48;22.23;;;13.80;;
34236;SDS011;20501;45.956;13.632;2022-11-20T16:53:17;18.70;;;11.82;;
34236;SDS011;20501;45.956;13.632;2022-11-20T16:55:44;18.40;;;11.68;;
34236;SDS011;20501;45.956;13.632;2022-11-20T16:58:10;19.20;;;10.95;;